createdAt,value
2018-06-11T00:01:21.364Z,20.10
2018-06-11T00:03:49.134Z,20.40
2018-06-11T00:06:16.911Z,20.20
2018-06-11T00:08:44.740Z,20.00
2018-06-11T00:11:12.536Z,20.10
2018-06-11T00:13:40.367Z,20.50
2018-06-11T00:16:08.173Z,20.40
2018-06-11T00:21:03.617Z,20.30
2018-06-11T00:25:58.996Z,20.40
2018-06-11T00:28:26.725Z,20.50
2018-06-11T00:30:54.541Z,20.20
2018-06-11T00:33:22.405Z,20.20
2018-06-11T00:35:50.211Z,20.00
2018-06-11T00:38:17.994Z,20.30
2018-06-11T00:40:45.740Z,20.10
2018-06-11T00:45:41.156Z,20.10
2018-06-11T00:53:04.313Z,20.00
2018-06-11T00:55:43.341Z,20.30
2018-06-11T00:58:11.200Z,20.30
2018-06-11T01:00:38.977Z,20.30
2018-06-11T01:03:06.777Z,19.80
2018-06-11T01:08:02.196Z,19.60
2018-06-11T01:15:25.312Z,20.30
2018-06-11T01:17:53.057Z,19.80
2018-06-11T01:22:48.451Z,19.80
2018-06-11T01:25:16.239Z,19.70
2018-06-11T01:27:43.991Z,19.80
2018-06-11T01:30:11.769Z,19.50
2018-06-11T01:37:34.824Z,19.70
2018-06-11T01:40:02.616Z,19.30
2018-06-11T01:42:30.374Z,19.70
2018-06-11T01:44:58.152Z,19.60
2018-06-11T01:47:25.952Z,19.50
2018-06-11T01:49:53.744Z,19.40
2018-06-11T01:52:21.513Z,19.20
2018-06-11T01:54:49.286Z,19.50
2018-06-11T01:57:17.068Z,19.20
2018-06-11T01:59:44.827Z,19.00
2018-06-11T02:02:12.607Z,18.90
2018-06-11T02:07:08.012Z,18.80
2018-06-11T02:09:35.808Z,19.00
2018-06-11T02:12:03.565Z,18.90
2018-06-11T02:14:31.291Z,18.70
2018-06-11T02:16:59.040Z,18.70
2018-06-11T02:19:26.743Z,18.90
2018-06-11T02:21:54.521Z,18.70
2018-06-11T02:24:22.300Z,18.90
2018-06-11T02:26:50.060Z,18.70
2018-06-11T02:29:17.819Z,18.80
2018-06-11T02:31:45.612Z,18.80
2018-06-11T02:34:13.401Z,18.50
2018-06-11T02:36:41.160Z,18.90
2018-06-11T02:39:09.240Z,18.80
2018-06-11T02:41:36.980Z,18.40
2018-06-11T02:44:04.760Z,18.30
2018-06-11T02:46:32.553Z,18.20
2018-06-11T02:49:00.316Z,18.60
2018-06-11T02:51:28.084Z,18.60
2018-06-11T02:53:55.849Z,18.20
2018-06-11T02:56:23.604Z,18.40
2018-06-11T02:58:51.360Z,18.10
2018-06-11T03:01:19.196Z,18.60
2018-06-11T03:03:46.988Z,18.30
2018-06-11T03:06:14.739Z,18.60
2018-06-11T03:08:42.548Z,18.50
2018-06-11T03:11:10.298Z,18.80
2018-06-11T03:13:38.063Z,18.50
2018-06-11T03:16:05.884Z,18.70
2018-06-11T03:18:33.635Z,18.60
2018-06-11T03:21:01.443Z,18.50
2018-06-11T03:23:29.216Z,18.20
2018-06-11T03:25:57.061Z,18.40
2018-06-11T03:28:24.831Z,18.00
2018-06-11T03:30:52.684Z,18.40
2018-06-11T03:33:20.579Z,18.20
2018-06-11T03:35:48.502Z,18.40
2018-06-11T03:38:16.314Z,18.40
2018-06-11T03:40:44.200Z,18.50
2018-06-11T03:45:39.787Z,18.20
2018-06-11T03:48:07.535Z,18.60
2018-06-11T03:50:35.345Z,18.20
2018-06-11T03:53:03.140Z,17.90
2018-06-11T03:55:30.896Z,18.50
2018-06-11T03:57:58.680Z,18.50
2018-06-11T04:02:54.071Z,17.90
2018-06-11T04:05:21.874Z,18.30
2018-06-11T04:07:49.633Z,18.40
2018-06-11T04:12:45.068Z,18.20
2018-06-11T04:15:12.836Z,18.50
2018-06-11T04:20:08.245Z,18.40
2018-06-11T04:22:36.006Z,18.70
2018-06-11T04:25:05.845Z,18.10
2018-06-11T04:27:33.626Z,18.40
2018-06-11T04:30:02.529Z,18.50
2018-06-11T04:32:30.317Z,18.40
2018-06-11T04:34:58.120Z,18.30
2018-06-11T04:39:53.536Z,18.30
2018-06-11T04:42:21.310Z,18.60
2018-06-11T04:44:49.068Z,18.70
2018-06-11T04:47:16.816Z,18.50
2018-06-11T04:49:44.604Z,18.60
2018-06-11T04:52:12.368Z,18.80
2018-06-11T04:54:40.100Z,18.80
2018-06-11T04:57:07.865Z,18.60
2018-06-11T04:59:35.597Z,18.70
2018-06-11T05:02:03.747Z,18.50
2018-06-11T05:04:31.556Z,18.70
2018-06-11T05:06:59.337Z,18.50
2018-06-11T05:09:27.112Z,18.50
2018-06-11T05:11:54.901Z,18.70
2018-06-11T05:16:50.220Z,18.90
2018-06-11T05:19:17.976Z,19.30
2018-06-11T05:21:45.691Z,19.30
2018-06-11T05:24:13.453Z,19.50
2018-06-11T05:26:41.347Z,19.20
2018-06-11T05:29:09.109Z,19.50
2018-06-11T05:31:36.902Z,19.40
2018-06-11T05:36:32.337Z,20.30
2018-06-11T05:43:55.408Z,20.20
2018-06-11T05:46:23.213Z,20.20
2018-06-11T05:48:50.965Z,20.30
2018-06-11T05:51:18.730Z,20.30
2018-06-11T05:53:46.500Z,20.50
2018-06-11T05:56:14.315Z,20.30
2018-06-11T05:58:42.078Z,20.50
2018-06-11T06:01:09.870Z,20.00
2018-06-11T06:06:05.374Z,20.50
2018-06-11T06:08:33.220Z,20.40
2018-06-11T06:11:01.008Z,20.50
2018-06-11T06:13:28.798Z,20.80
2018-06-11T06:15:56.637Z,21.00
2018-06-11T06:18:24.356Z,20.70
2018-06-11T06:20:52.093Z,21.00
2018-06-11T06:23:19.863Z,20.80
2018-06-11T06:28:15.218Z,20.60
2018-06-11T06:30:43.024Z,20.80
2018-06-11T06:33:10.816Z,20.80
2018-06-11T06:35:38.628Z,21.20
2018-06-11T06:38:06.393Z,20.80
2018-06-11T06:40:34.249Z,21.00
2018-06-11T06:43:02.137Z,21.60
2018-06-11T06:45:29.930Z,21.70
2018-06-11T06:47:57.783Z,22.10
2018-06-11T06:50:25.605Z,21.60
2018-06-11T06:52:53.491Z,22.00
2018-06-11T06:55:21.289Z,22.10
2018-06-11T06:57:49.080Z,21.90
2018-06-11T07:00:16.897Z,21.90
2018-06-11T07:02:44.729Z,22.00
2018-06-11T07:05:12.528Z,22.10
2018-06-11T07:07:40.289Z,22.20
2018-06-11T07:10:08.053Z,22.40
2018-06-11T07:12:35.851Z,22.10
2018-06-11T07:15:03.894Z,22.80
2018-06-11T07:17:31.753Z,22.40
2018-06-11T07:19:59.582Z,22.70
2018-06-11T07:22:27.377Z,22.80
2018-06-11T07:24:55.282Z,23.00
2018-06-11T07:27:23.120Z,23.40
2018-06-11T07:29:50.952Z,23.20
2018-06-11T07:32:18.828Z,23.10
2018-06-11T07:34:46.684Z,23.10
2018-06-11T07:37:14.510Z,23.10
2018-06-11T07:39:42.284Z,23.30
2018-06-11T07:42:10.066Z,23.30
2018-06-11T07:44:37.803Z,23.00
2018-06-11T07:47:05.560Z,23.50
2018-06-11T07:49:33.307Z,24.10
2018-06-11T07:52:01.085Z,23.70
2018-06-11T07:54:28.856Z,24.40
2018-06-11T07:56:56.688Z,24.50
2018-06-11T07:59:24.464Z,24.60
2018-06-11T08:01:52.205Z,24.60
2018-06-11T08:04:19.994Z,24.30
2018-06-11T08:06:47.774Z,24.30
2018-06-11T08:09:15.523Z,24.60
2018-06-11T08:11:43.311Z,25.10
2018-06-11T08:14:11.120Z,25.30
2018-06-11T08:16:39.168Z,24.80
2018-06-11T08:19:06.928Z,24.00
2018-06-11T08:21:34.719Z,24.30
2018-06-11T08:24:02.524Z,24.10
2018-06-11T08:26:30.296Z,24.60
2018-06-11T08:28:58.113Z,25.10
2018-06-11T08:33:53.620Z,24.60
2018-06-11T08:36:21.432Z,24.30
2018-06-11T08:38:49.267Z,24.10
2018-06-11T08:41:17.206Z,24.20
2018-06-11T08:43:44.996Z,24.10
2018-06-11T08:46:12.855Z,24.10
2018-06-11T08:48:40.777Z,23.90
2018-06-11T08:51:08.671Z,23.80
2018-06-11T08:53:36.460Z,23.50
2018-06-11T08:56:04.268Z,23.80
2018-06-11T08:58:32.009Z,24.00
2018-06-11T09:00:59.775Z,24.30
2018-06-11T09:05:55.212Z,25.00
2018-06-11T09:08:22.992Z,24.80
2018-06-11T09:10:50.803Z,25.10
2018-06-11T09:13:19.511Z,25.90
2018-06-11T09:15:47.240Z,26.10
2018-06-11T09:18:15.261Z,26.30
2018-06-11T09:20:42.883Z,27.60
2018-06-11T09:23:10.674Z,27.70
2018-06-11T09:25:38.440Z,27.30
2018-06-11T09:28:06.204Z,27.00
2018-06-11T09:30:33.984Z,26.90
2018-06-11T09:35:29.392Z,27.10
2018-06-11T09:40:24.867Z,27.80
2018-06-11T09:42:52.723Z,28.40
2018-06-11T09:45:20.571Z,28.50
2018-06-11T09:47:49.140Z,28.90
2018-06-11T09:50:17.047Z,29.40
2018-06-11T09:52:44.919Z,28.40
2018-06-11T09:55:12.756Z,27.60
2018-06-11T09:57:40.559Z,27.50
2018-06-11T10:00:12.951Z,27.10
2018-06-11T10:02:40.852Z,26.90
2018-06-11T10:05:08.705Z,28.30
2018-06-11T10:07:36.497Z,28.90
2018-06-11T10:12:32.057Z,30.70
2018-06-11T10:17:27.455Z,31.40
2018-06-11T10:24:50.597Z,32.40
2018-06-11T10:27:18.402Z,31.30
2018-06-11T10:29:46.281Z,31.70
2018-06-11T10:32:14.276Z,31.50
2018-06-11T10:34:42.034Z,31.30
2018-06-11T10:37:13.492Z,30.70
2018-06-11T10:39:41.308Z,30.70
2018-06-11T10:42:09.163Z,30.50
2018-06-11T10:44:37.052Z,30.80
2018-06-11T10:47:04.876Z,31.00
2018-06-11T10:49:32.717Z,31.50
2018-06-11T10:52:00.476Z,31.20
2018-06-11T10:54:28.340Z,30.50
2018-06-11T10:56:56.100Z,31.20
2018-06-11T10:59:23.916Z,31.10
2018-06-11T11:01:51.720Z,31.10
2018-06-11T11:04:19.522Z,30.60
2018-06-11T11:06:47.437Z,31.00
2018-06-11T11:09:15.229Z,31.10
2018-06-11T11:11:43.001Z,31.80
2018-06-11T11:14:10.835Z,31.40
2018-06-11T11:19:06.361Z,31.10
2018-06-11T11:21:34.140Z,31.10
2018-06-11T11:24:02.059Z,30.80
2018-06-11T11:26:29.854Z,31.00
2018-06-11T11:31:25.410Z,31.30
2018-06-11T11:33:53.196Z,32.00
2018-06-11T11:36:20.997Z,31.60
2018-06-11T11:38:48.826Z,32.30
2018-06-11T11:41:16.665Z,31.80
2018-06-11T11:43:44.602Z,32.00
2018-06-11T11:46:12.381Z,32.20
2018-06-11T11:48:40.220Z,32.00
2018-06-11T11:51:08.167Z,31.80
2018-06-11T11:53:35.948Z,31.70
2018-06-11T11:56:03.768Z,30.80
2018-06-11T11:58:31.623Z,30.80
2018-06-11T12:00:59.439Z,31.20
2018-06-11T12:03:27.319Z,31.50
2018-06-11T12:05:55.116Z,31.80
2018-06-11T12:10:50.669Z,31.60
2018-06-11T12:15:46.073Z,32.40
2018-06-11T12:18:13.861Z,32.50
2018-06-11T12:20:41.625Z,32.30
2018-06-11T12:23:09.451Z,32.40
2018-06-11T12:25:37.265Z,31.70
2018-06-11T12:28:05.100Z,30.90
2018-06-11T12:33:00.585Z,30.00
2018-06-11T12:35:28.402Z,29.90
2018-06-11T12:37:56.164Z,29.70
2018-06-11T12:42:51.734Z,29.70
2018-06-11T12:45:19.543Z,29.80
2018-06-11T12:50:15.144Z,30.00
2018-06-11T12:52:42.992Z,30.30
2018-06-11T12:55:10.808Z,30.70
2018-06-11T12:57:38.595Z,30.10
2018-06-11T13:02:34.098Z,29.10
2018-06-11T13:05:01.882Z,29.30
2018-06-11T13:19:48.060Z,28.40
2018-06-11T13:24:43.473Z,28.00
2018-06-11T13:27:11.248Z,27.50
2018-06-11T13:29:39.001Z,27.40
2018-06-11T13:32:06.821Z,27.20
2018-06-11T13:34:34.539Z,26.90
2018-06-11T13:39:30.066Z,26.80
2018-06-11T13:41:57.830Z,26.90
2018-06-11T13:44:25.627Z,26.80
2018-06-11T13:46:53.399Z,26.90
2018-06-11T13:49:21.199Z,27.20
2018-06-11T13:51:49.004Z,26.60
2018-06-11T13:54:16.795Z,26.20
2018-06-11T13:56:44.588Z,25.70
2018-06-11T13:59:12.327Z,25.90
2018-06-11T14:01:40.182Z,26.00
2018-06-11T14:04:07.959Z,25.90
2018-06-11T14:06:35.751Z,25.90
2018-06-11T14:09:05.864Z,25.50
2018-06-11T14:11:33.661Z,25.60
2018-06-11T14:14:01.399Z,25.30
2018-06-11T14:16:29.176Z,25.00
2018-06-11T14:18:56.931Z,25.00
2018-06-11T14:21:24.696Z,24.60
2018-06-11T14:23:52.423Z,24.50
2018-06-11T14:31:15.486Z,24.80
2018-06-11T14:33:43.256Z,24.80
2018-06-11T14:36:11.040Z,24.30
2018-06-11T14:41:06.725Z,24.60
2018-06-11T14:43:34.787Z,24.70
2018-06-11T14:46:02.576Z,24.20
2018-06-11T14:48:30.308Z,24.20
2018-06-11T14:50:58.082Z,24.00
2018-06-11T14:53:25.808Z,24.40
2018-06-11T14:55:53.511Z,24.20
2018-06-11T14:58:21.292Z,24.70
2018-06-11T15:00:49.040Z,24.80
2018-06-11T15:03:16.804Z,24.20
2018-06-11T15:05:44.714Z,24.60
2018-06-11T15:10:40.249Z,24.60
2018-06-11T15:13:09.929Z,24.50
2018-06-11T15:15:37.825Z,24.20
2018-06-11T15:18:05.659Z,24.40
2018-06-11T15:20:33.472Z,24.60
2018-06-11T15:23:01.315Z,24.10
2018-06-11T15:27:56.811Z,23.90
2018-06-11T15:30:24.683Z,23.90
2018-06-11T15:32:52.513Z,24.50
2018-06-11T15:35:20.408Z,24.60
2018-06-11T15:37:48.308Z,24.00
2018-06-11T15:47:39.646Z,24.40
2018-06-11T15:50:07.553Z,24.10
2018-06-11T15:52:35.429Z,24.30
2018-06-11T15:55:03.212Z,23.90
2018-06-11T15:57:31.084Z,24.20
2018-06-11T16:02:27.945Z,24.10
2018-06-11T16:04:55.910Z,24.20
2018-06-11T16:07:23.784Z,24.10
2018-06-11T16:09:52.623Z,24.40
2018-06-11T16:12:26.081Z,24.20
2018-06-11T16:14:54.138Z,24.20
2018-06-11T16:19:49.700Z,24.60
2018-06-11T16:22:17.527Z,24.10
2018-06-11T16:24:45.401Z,24.10
2018-06-11T16:27:13.707Z,24.50
2018-06-11T16:29:42.380Z,23.90
2018-06-11T16:32:22.257Z,24.00
2018-06-11T16:35:09.184Z,24.20
2018-06-11T16:37:48.753Z,24.10
2018-06-11T16:40:27.487Z,24.10
2018-06-11T16:43:03.027Z,24.20
2018-06-11T16:45:38.722Z,23.90
2018-06-11T16:48:09.173Z,24.00
2018-06-11T16:53:14.915Z,23.40
2018-06-11T16:55:48.746Z,23.90
2018-06-11T16:58:24.909Z,23.80
2018-06-11T17:00:56.445Z,24.10
2018-06-11T17:03:34.593Z,23.50
2018-06-11T17:08:47.831Z,23.30
2018-06-11T17:11:23.976Z,22.80
2018-06-11T17:13:56.131Z,23.40
2018-06-11T17:16:36.088Z,23.30
2018-06-11T17:19:09.396Z,23.20
2018-06-11T17:21:41.013Z,23.20
2018-06-11T17:24:19.013Z,22.50
2018-06-11T17:32:03.894Z,22.80
2018-06-11T17:34:42.547Z,22.70
2018-06-11T17:39:53.350Z,22.80
2018-06-11T17:42:28.230Z,22.60
2018-06-11T17:45:03.838Z,22.60
2018-06-11T17:47:40.827Z,22.60
2018-06-11T17:50:22.657Z,22.40
2018-06-11T17:53:02.196Z,22.50
2018-06-11T17:55:36.092Z,22.60
2018-06-11T17:58:09.049Z,22.80
2018-06-11T18:00:40.644Z,22.70
2018-06-11T18:03:16.397Z,22.50
2018-06-11T18:05:51.637Z,22.30
2018-06-11T18:08:29.468Z,22.40
2018-06-11T18:11:02.018Z,22.50
2018-06-11T18:13:37.421Z,22.60
2018-06-11T18:16:19.251Z,22.40
2018-06-11T18:18:58.649Z,22.50
2018-06-11T18:21:30.967Z,22.30
2018-06-11T18:24:07.047Z,22.30
2018-06-11T18:26:47.130Z,22.30
2018-06-11T18:29:21.386Z,22.20
2018-06-11T18:31:54.272Z,22.00
2018-06-11T18:34:27.032Z,22.40
2018-06-11T18:39:37.696Z,22.40
2018-06-11T18:42:13.196Z,22.30
2018-06-11T18:44:46.146Z,22.40
2018-06-11T18:47:21.394Z,21.90
2018-06-11T18:49:56.665Z,22.00
2018-06-11T18:52:30.270Z,22.10
2018-06-11T18:55:03.657Z,22.30
2018-06-11T18:57:43.785Z,21.70
2018-06-11T19:00:22.065Z,22.00
2018-06-11T19:03:07.820Z,21.80
2018-06-11T19:05:47.616Z,21.90
2018-06-11T19:08:33.291Z,21.90
2018-06-11T19:11:06.030Z,21.50
2018-06-11T19:13:40.252Z,21.80
2018-06-11T19:16:29.413Z,21.90
2018-06-11T19:19:05.592Z,21.70
2018-06-11T19:21:39.082Z,21.80
2018-06-11T19:24:19.230Z,21.70
2018-06-11T19:26:53.451Z,21.80
2018-06-11T19:29:33.194Z,21.30
2018-06-11T19:32:11.681Z,21.10
2018-06-11T19:34:50.014Z,21.20
2018-06-11T19:39:58.075Z,21.10
2018-06-11T19:42:40.043Z,21.00
2018-06-11T19:47:47.101Z,21.10
2018-06-11T19:50:29.255Z,20.80
2018-06-11T19:53:06.819Z,20.90
2018-06-11T19:55:39.545Z,20.60
2018-06-11T19:58:20.504Z,20.80
2018-06-11T20:00:54.818Z,20.40
2018-06-11T20:03:32.930Z,20.40
2018-06-11T20:06:11.947Z,20.80
2018-06-11T20:08:48.131Z,20.80
2018-06-11T20:11:26.127Z,20.60
2018-06-11T20:14:00.513Z,20.50
2018-06-11T20:16:39.056Z,20.60
2018-06-11T20:19:12.529Z,20.80
2018-06-11T20:21:52.824Z,20.60
2018-06-11T20:24:32.490Z,20.60
2018-06-11T20:27:05.704Z,20.70
2018-06-11T20:29:44.370Z,20.60
2018-06-11T20:32:26.609Z,20.80
2018-06-11T20:35:07.459Z,20.50
2018-06-11T20:37:41.996Z,20.70
2018-06-11T20:40:16.699Z,20.30
2018-06-11T20:42:51.724Z,20.60
2018-06-11T20:45:28.716Z,20.30
2018-06-11T20:48:02.113Z,20.80
2018-06-11T20:50:34.963Z,20.50
2018-06-11T20:53:20.185Z,20.70
2018-06-11T20:55:57.473Z,20.70
2018-06-11T20:58:56.046Z,20.80
2018-06-11T21:02:37.849Z,20.70
2018-06-11T21:08:15.871Z,20.70
2018-06-11T21:13:48.269Z,20.10
2018-06-11T21:16:23.097Z,20.10
2018-06-11T21:19:05.623Z,20.40
2018-06-11T21:21:43.901Z,20.30
2018-06-11T21:27:48.488Z,20.20
2018-06-11T21:30:27.209Z,20.10
2018-06-11T21:33:02.148Z,19.80
2018-06-11T21:35:48.631Z,19.80
2018-06-11T21:46:23.416Z,19.90
2018-06-11T21:49:11.544Z,20.10
2018-06-11T21:57:20.016Z,19.60
2018-06-11T22:00:03.454Z,19.20
2018-06-11T22:02:41.046Z,19.20
2018-06-11T22:05:18.240Z,18.90
2018-06-11T22:08:06.793Z,18.80
2018-06-11T22:10:45.721Z,18.70
2018-06-11T22:13:24.230Z,18.50
2018-06-11T22:16:02.027Z,18.50
2018-06-11T22:18:35.731Z,18.30
2018-06-11T22:21:11.586Z,18.30
2018-06-11T22:24:04.355Z,18.30
2018-06-11T22:30:51.146Z,18.20
2018-06-11T22:33:33.942Z,18.30
2018-06-11T22:39:02.945Z,18.20
2018-06-11T22:41:37.331Z,18.10
2018-06-11T22:44:18.961Z,17.80
2018-06-11T22:46:56.618Z,18.10
2018-06-11T22:49:32.801Z,17.90
2018-06-11T22:52:19.694Z,17.90
2018-06-11T22:55:02.520Z,18.00
2018-06-11T22:57:40.926Z,17.90
2018-06-11T23:00:57.761Z,17.80
2018-06-11T23:03:48.150Z,17.90
2018-06-11T23:06:26.873Z,18.10
2018-06-11T23:09:08.667Z,17.90
2018-06-11T23:11:45.032Z,17.80
2018-06-11T23:14:24.684Z,17.90
2018-06-11T23:17:00.328Z,17.70
2018-06-11T23:19:44.992Z,17.90
2018-06-11T23:22:22.175Z,17.90
2018-06-11T23:24:58.427Z,17.60
2018-06-11T23:27:35.627Z,17.80
2018-06-11T23:30:12.204Z,17.80
2018-06-11T23:32:55.026Z,17.70
2018-06-11T23:35:58.214Z,17.30
2018-06-11T23:38:40.179Z,17.30
2018-06-11T23:44:12.147Z,17.70
2018-06-11T23:46:53.260Z,17.90
2018-06-11T23:49:38.861Z,17.90
